sensor_id;sensor_type;location;lat;lon;timestamp;P1;durP1;ratioP1;P2;durP2;ratioP2
58238;SDS011;44037;55.638;37.356;2022-11-15T00:00:45;7.00;;;2.17;;
58238;SDS011;44037;55.638;37.356;2022-11-15T00:03:13;2.42;;;0.90;;
58238;SDS011;44037;55.638;37.356;2022-11-15T00:05:41;5.47;;;0.80;;
58238;SDS011;44037;55.638;37.356;2022-11-15T00:08:08;2.85;;;0.70;;
58238;SDS011;44037;55.638;37.356;2022-11-15T00:10:35;2.30;;;0.55;;
58238;SDS011;44037;55.638;37.356;2022-11-15T00:13:06;3.25;;;0.95;;
58238;SDS011;44037;55.638;37.356;2022-11-15T00:15:35;4.15;;;0.82;;
58238;SDS011;44037;55.638;37.356;2022-11-15T00:18:03;2.85;;;0.75;;
58238;SDS011;44037;55.638;37.356;2022-11-15T00:20:33;2.72;;;0.65;;
58238;SDS011;44037;55.638;37.356;2022-11-15T00:23:00;0.90;;;0.73;;
58238;SDS011;44037;55.638;37.356;2022-11-15T00:25:29;2.15;;;0.82;;
58238;SDS011;44037;55.638;37.356;2022-11-15T00:27:57;3.00;;;0.60;;
58238;SDS011;44037;55.638;37.356;2022-11-15T00:30:26;3.03;;;0.80;;
58238;SDS011;44037;55.638;37.356;2022-11-15T00:32:55;4.95;;;1.83;;
58238;SDS011;44037;55.638;37.356;2022-11-15T00:35:22;2.25;;;0.65;;
58238;SDS011;44037;55.638;37.356;2022-11-15T00:37:50;2.38;;;0.80;;
58238;SDS011;44037;55.638;37.356;2022-11-15T00:40:19;2.35;;;0.77;;
58238;SDS011;44037;55.638;37.356;2022-11-15T00:42:46;4.57;;;0.70;;
58238;SDS011;44037;55.638;37.356;2022-11-15T00:45:13;4.57;;;0.77;;
58238;SDS011;44037;55.638;37.356;2022-11-15T00:47:43;4.18;;;1.05;;
58238;SDS011;44037;55.638;37.356;2022-11-15T00:50:12;2.88;;;0.90;;
58238;SDS011;44037;55.638;37.356;2022-11-15T00:52:39;1.55;;;0.75;;
58238;SDS011;44037;55.638;37.356;2022-11-15T00:55:07;1.20;;;0.65;;
58238;SDS011;44037;55.638;37.356;2022-11-15T00:57:35;2.90;;;0.70;;
58238;SDS011;44037;55.638;37.356;2022-11-15T01:00:03;2.63;;;0.88;;
58238;SDS011;44037;55.638;37.356;2022-11-15T01:02:31;1.25;;;0.73;;
58238;SDS011;44037;55.638;37.356;2022-11-15T01:04:58;2.80;;;1.00;;
58238;SDS011;44037;55.638;37.356;2022-11-15T01:07:27;1.58;;;0.98;;
58238;SDS011;44037;55.638;37.356;2022-11-15T01:09:54;2.15;;;0.90;;
58238;SDS011;44037;55.638;37.356;2022-11-15T01:12:21;3.30;;;0.75;;
58238;SDS011;44037;55.638;37.356;2022-11-15T01:14:49;2.33;;;0.70;;
58238;SDS011;44037;55.638;37.356;2022-11-15T01:17:16;3.88;;;0.90;;
58238;SDS011;44037;55.638;37.356;2022-11-15T01:19:43;2.95;;;0.90;;
58238;SDS011;44037;55.638;37.356;2022-11-15T01:22:10;1.67;;;0.75;;
58238;SDS011;44037;55.638;37.356;2022-11-15T01:24:39;3.17;;;1.10;;
58238;SDS011;44037;55.638;37.356;2022-11-15T01:27:06;1.70;;;0.80;;
58238;SDS011;44037;55.638;37.356;2022-11-15T01:29:33;3.17;;;0.73;;
58238;SDS011;44037;55.638;37.356;2022-11-15T01:32:00;3.05;;;0.88;;
58238;SDS011;44037;55.638;37.356;2022-11-15T01:34:28;1.58;;;0.75;;
58238;SDS011;44037;55.638;37.356;2022-11-15T01:36:55;3.75;;;0.90;;
58238;SDS011;44037;55.638;37.356;2022-11-15T01:39:22;4.35;;;0.90;;
58238;SDS011;44037;55.638;37.356;2022-11-15T01:41:50;2.75;;;0.75;;
58238;SDS011;44037;55.638;37.356;2022-11-15T01:47:09;5.18;;;1.17;;
58238;SDS011;44037;55.638;37.356;2022-11-15T01:49:48;1.92;;;1.10;;
58238;SDS011;44037;55.638;37.356;2022-11-15T01:52:20;4.97;;;0.88;;
58238;SDS011;44037;55.638;37.356;2022-11-15T01:54:53;3.00;;;0.85;;
58238;SDS011;44037;55.638;37.356;2022-11-15T01:57:24;8.25;;;0.93;;
58238;SDS011;44037;55.638;37.356;2022-11-15T01:59:51;5.95;;;0.95;;
58238;SDS011;44037;55.638;37.356;2022-11-15T02:02:19;4.80;;;1.20;;
58238;SDS011;44037;55.638;37.356;2022-11-15T02:04:47;2.60;;;1.10;;
58238;SDS011;44037;55.638;37.356;2022-11-15T02:07:15;5.40;;;1.40;;
58238;SDS011;44037;55.638;37.356;2022-11-15T02:09:44;4.32;;;0.93;;
58238;SDS011;44037;55.638;37.356;2022-11-15T02:12:13;6.13;;;1.05;;
58238;SDS011;44037;55.638;37.356;2022-11-15T02:14:44;2.10;;;0.90;;
58238;SDS011;44037;55.638;37.356;2022-11-15T02:17:18;4.70;;;1.15;;
58238;SDS011;44037;55.638;37.356;2022-11-15T02:23:06;6.85;;;1.10;;
58238;SDS011;44037;55.638;37.356;2022-11-15T02:26:01;4.10;;;1.40;;
58238;SDS011;44037;55.638;37.356;2022-11-15T02:28:43;4.22;;;1.42;;
58238;SDS011;44037;55.638;37.356;2022-11-15T02:31:17;5.28;;;1.10;;
58238;SDS011;44037;55.638;37.356;2022-11-15T02:33:52;4.57;;;1.00;;
58238;SDS011;44037;55.638;37.356;2022-11-15T02:36:29;2.15;;;0.88;;
58238;SDS011;44037;55.638;37.356;2022-11-15T02:39:06;4.03;;;1.02;;
58238;SDS011;44037;55.638;37.356;2022-11-15T02:41:43;3.38;;;1.00;;
58238;SDS011;44037;55.638;37.356;2022-11-15T02:44:15;5.45;;;1.40;;
58238;SDS011;44037;55.638;37.356;2022-11-15T02:46:49;7.75;;;2.42;;
58238;SDS011;44037;55.638;37.356;2022-11-15T02:49:39;4.28;;;1.00;;
58238;SDS011;44037;55.638;37.356;2022-11-15T02:52:08;4.22;;;0.98;;
58238;SDS011;44037;55.638;37.356;2022-11-15T02:54:35;2.88;;;1.13;;
58238;SDS011;44037;55.638;37.356;2022-11-15T02:57:03;6.00;;;1.17;;
58238;SDS011;44037;55.638;37.356;2022-11-15T02:59:43;4.95;;;1.00;;
58238;SDS011;44037;55.638;37.356;2022-11-15T03:02:31;3.20;;;1.30;;
58238;SDS011;44037;55.638;37.356;2022-11-15T03:05:10;6.15;;;1.25;;
58238;SDS011;44037;55.638;37.356;2022-11-15T03:07:47;1.58;;;0.93;;
58238;SDS011;44037;55.638;37.356;2022-11-15T03:10:22;2.75;;;1.60;;
58238;SDS011;44037;55.638;37.356;2022-11-15T03:12:59;2.92;;;1.00;;
58238;SDS011;44037;55.638;37.356;2022-11-15T03:15:38;6.38;;;1.35;;
58238;SDS011;44037;55.638;37.356;2022-11-15T03:18:15;4.43;;;1.20;;
58238;SDS011;44037;55.638;37.356;2022-11-15T03:20:48;6.30;;;1.73;;
58238;SDS011;44037;55.638;37.356;2022-11-15T03:23:16;2.88;;;1.00;;
58238;SDS011;44037;55.638;37.356;2022-11-15T03:25:45;2.00;;;0.93;;
58238;SDS011;44037;55.638;37.356;2022-11-15T03:28:16;3.90;;;1.08;;
58238;SDS011;44037;55.638;37.356;2022-11-15T03:30:46;4.30;;;1.50;;
58238;SDS011;44037;55.638;37.356;2022-11-15T03:33:18;3.08;;;1.33;;
58238;SDS011;44037;55.638;37.356;2022-11-15T03:35:46;3.15;;;1.38;;
58238;SDS011;44037;55.638;37.356;2022-11-15T03:38:15;4.97;;;1.80;;
58238;SDS011;44037;55.638;37.356;2022-11-15T03:40:49;4.50;;;1.40;;
58238;SDS011;44037;55.638;37.356;2022-11-15T03:43:23;4.05;;;0.95;;
58238;SDS011;44037;55.638;37.356;2022-11-15T03:45:58;2.55;;;1.20;;
58238;SDS011;44037;55.638;37.356;2022-11-15T03:48:30;4.75;;;1.20;;
58238;SDS011;44037;55.638;37.356;2022-11-15T03:51:03;5.88;;;1.20;;
58238;SDS011;44037;55.638;37.356;2022-11-15T03:53:31;4.03;;;1.38;;
58238;SDS011;44037;55.638;37.356;2022-11-15T03:55:59;5.10;;;1.60;;
58238;SDS011;44037;55.638;37.356;2022-11-15T03:58:26;4.85;;;1.20;;
58238;SDS011;44037;55.638;37.356;2022-11-15T04:00:53;5.45;;;1.92;;
58238;SDS011;44037;55.638;37.356;2022-11-15T04:03:20;4.00;;;1.10;;
58238;SDS011;44037;55.638;37.356;2022-11-15T04:05:49;4.78;;;1.38;;
58238;SDS011;44037;55.638;37.356;2022-11-15T04:08:16;3.92;;;1.20;;
58238;SDS011;44037;55.638;37.356;2022-11-15T04:10:43;3.78;;;1.30;;
58238;SDS011;44037;55.638;37.356;2022-11-15T04:13:11;5.22;;;1.20;;
58238;SDS011;44037;55.638;37.356;2022-11-15T04:15:38;3.97;;;0.90;;
58238;SDS011;44037;55.638;37.356;2022-11-15T04:18:05;6.53;;;1.13;;
58238;SDS011;44037;55.638;37.356;2022-11-15T04:20:32;3.10;;;1.00;;
58238;SDS011;44037;55.638;37.356;2022-11-15T04:23:19;3.58;;;1.08;;
58238;SDS011;44037;55.638;37.356;2022-11-15T04:26:05;3.70;;;1.27;;
58238;SDS011;44037;55.638;37.356;2022-11-15T04:28:34;4.00;;;1.38;;
58238;SDS011;44037;55.638;37.356;2022-11-15T04:31:22;2.70;;;0.95;;
58238;SDS011;44037;55.638;37.356;2022-11-15T04:33:49;3.55;;;1.20;;
58238;SDS011;44037;55.638;37.356;2022-11-15T04:36:16;15.85;;;6.80;;
58238;SDS011;44037;55.638;37.356;2022-11-15T04:39:17;7.38;;;1.55;;
58238;SDS011;44037;55.638;37.356;2022-11-15T04:41:44;2.95;;;1.27;;
58238;SDS011;44037;55.638;37.356;2022-11-15T04:44:12;3.13;;;1.15;;
58238;SDS011;44037;55.638;37.356;2022-11-15T04:46:39;4.03;;;1.15;;
58238;SDS011;44037;55.638;37.356;2022-11-15T04:49:06;2.67;;;1.20;;
58238;SDS011;44037;55.638;37.356;2022-11-15T04:51:33;4.57;;;1.00;;
58238;SDS011;44037;55.638;37.356;2022-11-15T04:54:04;4.57;;;1.15;;
58238;SDS011;44037;55.638;37.356;2022-11-15T04:56:35;3.38;;;0.98;;
58238;SDS011;44037;55.638;37.356;2022-11-15T04:59:02;5.88;;;1.63;;
58238;SDS011;44037;55.638;37.356;2022-11-15T05:01:30;3.65;;;1.08;;
58238;SDS011;44037;55.638;37.356;2022-11-15T05:03:57;2.67;;;1.15;;
58238;SDS011;44037;55.638;37.356;2022-11-15T05:06:41;3.95;;;0.88;;
58238;SDS011;44037;55.638;37.356;2022-11-15T05:09:09;3.70;;;1.15;;
58238;SDS011;44037;55.638;37.356;2022-11-15T05:11:39;4.03;;;1.52;;
58238;SDS011;44037;55.638;37.356;2022-11-15T05:14:07;7.68;;;1.33;;
58238;SDS011;44037;55.638;37.356;2022-11-15T05:16:34;4.28;;;1.20;;
58238;SDS011;44037;55.638;37.356;2022-11-15T05:19:02;5.78;;;2.00;;
58238;SDS011;44037;55.638;37.356;2022-11-15T05:21:29;6.65;;;1.55;;
58238;SDS011;44037;55.638;37.356;2022-11-15T05:23:57;2.67;;;1.27;;
58238;SDS011;44037;55.638;37.356;2022-11-15T05:26:25;3.92;;;1.30;;
58238;SDS011;44037;55.638;37.356;2022-11-15T05:28:55;9.57;;;1.35;;
58238;SDS011;44037;55.638;37.356;2022-11-15T05:31:23;5.20;;;1.30;;
58238;SDS011;44037;55.638;37.356;2022-11-15T05:33:51;3.88;;;1.40;;
58238;SDS011;44037;55.638;37.356;2022-11-15T05:36:21;6.25;;;1.25;;
58238;SDS011;44037;55.638;37.356;2022-11-15T05:38:57;1.55;;;0.85;;
58238;SDS011;44037;55.638;37.356;2022-11-15T05:41:25;3.47;;;1.30;;
58238;SDS011;44037;55.638;37.356;2022-11-15T05:43:58;3.92;;;1.20;;
58238;SDS011;44037;55.638;37.356;2022-11-15T05:46:27;4.85;;;1.45;;
58238;SDS011;44037;55.638;37.356;2022-11-15T05:48:55;4.50;;;2.10;;
58238;SDS011;44037;55.638;37.356;2022-11-15T05:51:24;7.82;;;1.52;;
58238;SDS011;44037;55.638;37.356;2022-11-15T05:53:54;6.93;;;1.65;;
58238;SDS011;44037;55.638;37.356;2022-11-15T05:56:23;1.98;;;0.93;;
58238;SDS011;44037;55.638;37.356;2022-11-15T05:58:52;3.40;;;1.25;;
58238;SDS011;44037;55.638;37.356;2022-11-15T06:01:23;3.47;;;1.10;;
58238;SDS011;44037;55.638;37.356;2022-11-15T06:03:52;9.48;;;1.20;;
58238;SDS011;44037;55.638;37.356;2022-11-15T06:06:28;2.13;;;1.08;;
58238;SDS011;44037;55.638;37.356;2022-11-15T06:08:56;3.42;;;1.30;;
58238;SDS011;44037;55.638;37.356;2022-11-15T06:11:23;7.05;;;1.45;;
58238;SDS011;44037;55.638;37.356;2022-11-15T06:13:50;7.07;;;2.70;;
58238;SDS011;44037;55.638;37.356;2022-11-15T06:16:17;4.78;;;1.60;;
58238;SDS011;44037;55.638;37.356;2022-11-15T06:18:46;7.50;;;2.50;;
58238;SDS011;44037;55.638;37.356;2022-11-15T06:21:13;6.00;;;1.20;;
58238;SDS011;44037;55.638;37.356;2022-11-15T06:23:40;4.40;;;1.90;;
58238;SDS011;44037;55.638;37.356;2022-11-15T06:26:07;4.65;;;2.03;;
58238;SDS011;44037;55.638;37.356;2022-11-15T06:28:34;4.72;;;1.30;;
58238;SDS011;44037;55.638;37.356;2022-11-15T06:31:02;4.78;;;1.52;;
58238;SDS011;44037;55.638;37.356;2022-11-15T06:33:29;8.00;;;1.70;;
58238;SDS011;44037;55.638;37.356;2022-11-15T06:36:01;5.18;;;1.25;;
58238;SDS011;44037;55.638;37.356;2022-11-15T06:38:28;8.65;;;1.42;;
58238;SDS011;44037;55.638;37.356;2022-11-15T06:41:00;6.18;;;1.90;;
58238;SDS011;44037;55.638;37.356;2022-11-15T06:43:28;6.97;;;1.13;;
58238;SDS011;44037;55.638;37.356;2022-11-15T06:45:55;8.10;;;1.90;;
58238;SDS011;44037;55.638;37.356;2022-11-15T06:48:24;2.47;;;1.33;;
58238;SDS011;44037;55.638;37.356;2022-11-15T06:50:54;10.98;;;3.40;;
58238;SDS011;44037;55.638;37.356;2022-11-15T06:53:24;12.85;;;2.58;;
58238;SDS011;44037;55.638;37.356;2022-11-15T06:55:52;9.35;;;2.03;;
58238;SDS011;44037;55.638;37.356;2022-11-15T06:58:20;13.98;;;3.10;;
58238;SDS011;44037;55.638;37.356;2022-11-15T07:00:48;4.65;;;1.83;;
58238;SDS011;44037;55.638;37.356;2022-11-15T07:03:15;5.25;;;1.83;;
58238;SDS011;44037;55.638;37.356;2022-11-15T07:05:42;3.85;;;1.85;;
58238;SDS011;44037;55.638;37.356;2022-11-15T07:08:16;6.47;;;2.20;;
58238;SDS011;44037;55.638;37.356;2022-11-15T07:10:46;5.18;;;1.70;;
58238;SDS011;44037;55.638;37.356;2022-11-15T07:13:15;7.18;;;2.13;;
58238;SDS011;44037;55.638;37.356;2022-11-15T07:15:43;5.85;;;2.13;;
58238;SDS011;44037;55.638;37.356;2022-11-15T07:18:10;5.45;;;1.67;;
58238;SDS011;44037;55.638;37.356;2022-11-15T07:20:37;4.72;;;2.13;;
58238;SDS011;44037;55.638;37.356;2022-11-15T07:23:05;4.50;;;2.03;;
58238;SDS011;44037;55.638;37.356;2022-11-15T07:25:32;5.25;;;1.73;;
58238;SDS011;44037;55.638;37.356;2022-11-15T07:28:01;7.22;;;1.98;;
58238;SDS011;44037;55.638;37.356;2022-11-15T07:30:29;7.55;;;2.22;;
58238;SDS011;44037;55.638;37.356;2022-11-15T07:32:56;5.10;;;2.03;;
58238;SDS011;44037;55.638;37.356;2022-11-15T07:35:25;7.47;;;2.30;;
58238;SDS011;44037;55.638;37.356;2022-11-15T07:37:54;12.85;;;2.47;;
58238;SDS011;44037;55.638;37.356;2022-11-15T07:40:22;9.27;;;1.95;;
58238;SDS011;44037;55.638;37.356;2022-11-15T07:42:49;5.72;;;1.83;;
58238;SDS011;44037;55.638;37.356;2022-11-15T07:45:21;6.50;;;1.63;;
58238;SDS011;44037;55.638;37.356;2022-11-15T07:48:04;4.72;;;1.67;;
58238;SDS011;44037;55.638;37.356;2022-11-15T07:50:37;5.97;;;2.25;;
58238;SDS011;44037;55.638;37.356;2022-11-15T07:53:08;5.15;;;1.98;;
58238;SDS011;44037;55.638;37.356;2022-11-15T07:55:36;9.88;;;2.03;;
58238;SDS011;44037;55.638;37.356;2022-11-15T07:58:04;6.15;;;2.00;;
58238;SDS011;44037;55.638;37.356;2022-11-15T08:00:34;4.57;;;1.67;;
58238;SDS011;44037;55.638;37.356;2022-11-15T08:03:03;5.45;;;1.88;;
58238;SDS011;44037;55.638;37.356;2022-11-15T08:05:31;5.03;;;1.63;;
58238;SDS011;44037;55.638;37.356;2022-11-15T08:08:01;9.52;;;2.80;;
58238;SDS011;44037;55.638;37.356;2022-11-15T08:10:32;5.95;;;1.88;;
58238;SDS011;44037;55.638;37.356;2022-11-15T08:13:01;4.15;;;1.65;;
58238;SDS011;44037;55.638;37.356;2022-11-15T08:15:29;3.58;;;1.70;;
58238;SDS011;44037;55.638;37.356;2022-11-15T08:17:59;3.88;;;1.77;;
58238;SDS011;44037;55.638;37.356;2022-11-15T08:20:28;3.47;;;1.35;;
58238;SDS011;44037;55.638;37.356;2022-11-15T08:22:56;5.40;;;1.67;;
58238;SDS011;44037;55.638;37.356;2022-11-15T08:25:23;7.88;;;2.20;;
58238;SDS011;44037;55.638;37.356;2022-11-15T08:27:51;6.13;;;1.95;;
58238;SDS011;44037;55.638;37.356;2022-11-15T08:30:26;2.97;;;1.33;;
58238;SDS011;44037;55.638;37.356;2022-11-15T08:32:56;4.05;;;1.50;;
58238;SDS011;44037;55.638;37.356;2022-11-15T08:35:31;3.55;;;1.00;;
58238;SDS011;44037;55.638;37.356;2022-11-15T08:38:02;4.68;;;1.40;;
58238;SDS011;44037;55.638;37.356;2022-11-15T08:40:29;6.60;;;1.67;;
58238;SDS011;44037;55.638;37.356;2022-11-15T08:42:58;7.03;;;1.45;;
58238;SDS011;44037;55.638;37.356;2022-11-15T08:45:36;3.55;;;1.30;;
58238;SDS011;44037;55.638;37.356;2022-11-15T08:48:04;4.78;;;1.20;;
58238;SDS011;44037;55.638;37.356;2022-11-15T08:50:33;5.32;;;1.20;;
58238;SDS011;44037;55.638;37.356;2022-11-15T08:53:06;7.07;;;1.65;;
58238;SDS011;44037;55.638;37.356;2022-11-15T08:55:35;5.95;;;1.50;;
58238;SDS011;44037;55.638;37.356;2022-11-15T08:58:03;2.97;;;1.27;;
58238;SDS011;44037;55.638;37.356;2022-11-15T09:00:31;2.40;;;1.00;;
58238;SDS011;44037;55.638;37.356;2022-11-15T09:02:58;2.70;;;1.50;;
58238;SDS011;44037;55.638;37.356;2022-11-15T09:05:26;5.45;;;1.20;;
58238;SDS011;44037;55.638;37.356;2022-11-15T09:07:55;2.65;;;1.30;;
58238;SDS011;44037;55.638;37.356;2022-11-15T09:10:22;4.57;;;1.33;;
58238;SDS011;44037;55.638;37.356;2022-11-15T09:12:50;4.07;;;1.25;;
58238;SDS011;44037;55.638;37.356;2022-11-15T09:15:17;3.05;;;1.10;;
58238;SDS011;44037;55.638;37.356;2022-11-15T09:17:45;4.40;;;1.00;;
58238;SDS011;44037;55.638;37.356;2022-11-15T09:20:12;4.00;;;1.30;;
58238;SDS011;44037;55.638;37.356;2022-11-15T09:22:39;3.35;;;1.17;;
58238;SDS011;44037;55.638;37.356;2022-11-15T09:25:08;5.35;;;1.67;;
58238;SDS011;44037;55.638;37.356;2022-11-15T09:27:36;4.45;;;1.40;;
58238;SDS011;44037;55.638;37.356;2022-11-15T09:30:06;4.97;;;1.23;;
58238;SDS011;44037;55.638;37.356;2022-11-15T09:32:37;2.65;;;1.10;;
58238;SDS011;44037;55.638;37.356;2022-11-15T09:35:04;5.13;;;0.95;;
58238;SDS011;44037;55.638;37.356;2022-11-15T09:37:32;2.22;;;1.15;;
58238;SDS011;44037;55.638;37.356;2022-11-15T09:39:59;3.10;;;1.02;;
58238;SDS011;44037;55.638;37.356;2022-11-15T09:42:34;4.57;;;1.30;;
58238;SDS011;44037;55.638;37.356;2022-11-15T09:45:15;3.17;;;1.50;;
58238;SDS011;44037;55.638;37.356;2022-11-15T09:47:54;3.90;;;1.10;;
58238;SDS011;44037;55.638;37.356;2022-11-15T09:50:32;4.93;;;1.52;;
58238;SDS011;44037;55.638;37.356;2022-11-15T09:53:08;2.92;;;1.38;;
58238;SDS011;44037;55.638;37.356;2022-11-15T09:55:41;5.43;;;1.60;;
58238;SDS011;44037;55.638;37.356;2022-11-15T09:58:18;3.40;;;1.40;;
58238;SDS011;44037;55.638;37.356;2022-11-15T10:00:59;3.67;;;1.40;;
58238;SDS011;44037;55.638;37.356;2022-11-15T10:03:36;6.88;;;1.75;;
58238;SDS011;44037;55.638;37.356;2022-11-15T10:06:08;6.72;;;2.50;;
58238;SDS011;44037;55.638;37.356;2022-11-15T10:08:51;1.90;;;1.30;;
58238;SDS011;44037;55.638;37.356;2022-11-15T10:11:32;7.35;;;1.52;;
58238;SDS011;44037;55.638;37.356;2022-11-15T10:14:26;3.33;;;1.58;;
58238;SDS011;44037;55.638;37.356;2022-11-15T10:17:09;9.05;;;1.40;;
58238;SDS011;44037;55.638;37.356;2022-11-15T10:20:03;6.90;;;1.52;;
58238;SDS011;44037;55.638;37.356;2022-11-15T10:26:17;5.90;;;1.58;;
58238;SDS011;44037;55.638;37.356;2022-11-15T10:28:47;10.25;;;1.67;;
58238;SDS011;44037;55.638;37.356;2022-11-15T10:31:23;8.98;;;2.10;;
58238;SDS011;44037;55.638;37.356;2022-11-15T10:33:57;5.13;;;1.48;;
58238;SDS011;44037;55.638;37.356;2022-11-15T10:36:55;4.38;;;1.40;;
58238;SDS011;44037;55.638;37.356;2022-11-15T10:39:29;4.97;;;1.30;;
58238;SDS011;44037;55.638;37.356;2022-11-15T10:41:57;1.80;;;1.20;;
58238;SDS011;44037;55.638;37.356;2022-11-15T10:44:48;2.35;;;1.30;;
58238;SDS011;44037;55.638;37.356;2022-11-15T10:50:24;6.18;;;1.77;;
58238;SDS011;44037;55.638;37.356;2022-11-15T10:52:59;4.82;;;1.67;;
58238;SDS011;44037;55.638;37.356;2022-11-15T11:01:12;6.35;;;1.55;;
58238;SDS011;44037;55.638;37.356;2022-11-15T11:03:44;2.78;;;1.50;;
58238;SDS011;44037;55.638;37.356;2022-11-15T11:06:58;9.35;;;3.58;;
58238;SDS011;44037;55.638;37.356;2022-11-15T11:10:17;5.70;;;1.60;;
58238;SDS011;44037;55.638;37.356;2022-11-15T11:12:47;8.43;;;1.50;;
58238;SDS011;44037;55.638;37.356;2022-11-15T11:15:22;4.13;;;1.17;;
58238;SDS011;44037;55.638;37.356;2022-11-15T11:17:57;2.95;;;1.30;;
58238;SDS011;44037;55.638;37.356;2022-11-15T11:20:38;4.88;;;1.95;;
58238;SDS011;44037;55.638;37.356;2022-11-15T11:23:17;5.25;;;1.75;;
58238;SDS011;44037;55.638;37.356;2022-11-15T11:26:14;6.25;;;1.67;;
58238;SDS011;44037;55.638;37.356;2022-11-15T11:28:56;4.60;;;1.50;;
58238;SDS011;44037;55.638;37.356;2022-11-15T11:31:32;5.53;;;1.55;;
58238;SDS011;44037;55.638;37.356;2022-11-15T11:34:10;3.15;;;2.08;;
58238;SDS011;44037;55.638;37.356;2022-11-15T11:36:47;3.25;;;1.52;;
58238;SDS011;44037;55.638;37.356;2022-11-15T11:39:24;6.07;;;1.67;;
58238;SDS011;44037;55.638;37.356;2022-11-15T11:42:02;3.95;;;1.52;;
58238;SDS011;44037;55.638;37.356;2022-11-15T11:44:41;3.67;;;1.60;;
58238;SDS011;44037;55.638;37.356;2022-11-15T11:47:19;4.05;;;1.50;;
58238;SDS011;44037;55.638;37.356;2022-11-15T11:49:51;3.75;;;1.83;;
58238;SDS011;44037;55.638;37.356;2022-11-15T11:52:28;2.63;;;1.50;;
58238;SDS011;44037;55.638;37.356;2022-11-15T11:55:02;3.60;;;1.85;;
58238;SDS011;44037;55.638;37.356;2022-11-15T11:57:40;6.50;;;1.50;;
58238;SDS011;44037;55.638;37.356;2022-11-15T12:00:15;4.95;;;1.90;;
58238;SDS011;44037;55.638;37.356;2022-11-15T12:02:47;3.63;;;1.63;;
58238;SDS011;44037;55.638;37.356;2022-11-15T12:07:56;6.43;;;1.58;;
58238;SDS011;44037;55.638;37.356;2022-11-15T12:10:30;6.82;;;2.03;;
58238;SDS011;44037;55.638;37.356;2022-11-15T12:13:02;4.80;;;2.15;;
58238;SDS011;44037;55.638;37.356;2022-11-15T12:15:37;6.65;;;1.90;;
58238;SDS011;44037;55.638;37.356;2022-11-15T12:18:12;9.50;;;3.15;;
58238;SDS011;44037;55.638;37.356;2022-11-15T12:20:51;4.80;;;1.88;;
58238;SDS011;44037;55.638;37.356;2022-11-15T12:23:23;6.25;;;2.13;;
58238;SDS011;44037;55.638;37.356;2022-11-15T12:25:54;6.25;;;1.75;;
58238;SDS011;44037;55.638;37.356;2022-11-15T12:28:28;5.63;;;2.03;;
58238;SDS011;44037;55.638;37.356;2022-11-15T12:31:04;10.48;;;2.97;;
58238;SDS011;44037;55.638;37.356;2022-11-15T12:33:47;6.88;;;2.28;;
58238;SDS011;44037;55.638;37.356;2022-11-15T12:36:30;10.10;;;4.38;;
58238;SDS011;44037;55.638;37.356;2022-11-15T12:39:09;7.63;;;2.85;;
58238;SDS011;44037;55.638;37.356;2022-11-15T12:41:37;8.73;;;2.60;;
58238;SDS011;44037;55.638;37.356;2022-11-15T12:44:12;5.97;;;2.75;;
58238;SDS011;44037;55.638;37.356;2022-11-15T12:47:02;20.70;;;11.80;;
58238;SDS011;44037;55.638;37.356;2022-11-15T12:49:44;12.13;;;4.88;;
58238;SDS011;44037;55.638;37.356;2022-11-15T12:52:15;5.22;;;1.92;;
58238;SDS011;44037;55.638;37.356;2022-11-15T12:55:02;7.18;;;2.17;;
58238;SDS011;44037;55.638;37.356;2022-11-15T12:57:58;3.03;;;1.95;;
58238;SDS011;44037;55.638;37.356;2022-11-15T13:00:57;5.97;;;1.98;;
58238;SDS011;44037;55.638;37.356;2022-11-15T13:03:27;5.65;;;1.95;;
58238;SDS011;44037;55.638;37.356;2022-11-15T13:06:03;6.40;;;1.90;;
58238;SDS011;44037;55.638;37.356;2022-11-15T13:08:49;4.18;;;2.03;;
58238;SDS011;44037;55.638;37.356;2022-11-15T13:17:29;4.63;;;1.60;;
58238;SDS011;44037;55.638;37.356;2022-11-15T13:20:08;8.02;;;2.05;;
58238;SDS011;44037;55.638;37.356;2022-11-15T13:22:51;5.47;;;1.88;;
58238;SDS011;44037;55.638;37.356;2022-11-15T13:28:47;5.00;;;2.08;;
58238;SDS011;44037;55.638;37.356;2022-11-15T13:31:24;7.13;;;2.15;;
58238;SDS011;44037;55.638;37.356;2022-11-15T13:33:59;5.05;;;2.13;;
58238;SDS011;44037;55.638;37.356;2022-11-15T13:36:29;10.73;;;2.65;;
58238;SDS011;44037;55.638;37.356;2022-11-15T13:39:00;8.43;;;2.90;;
58238;SDS011;44037;55.638;37.356;2022-11-15T13:41:30;5.05;;;2.08;;
58238;SDS011;44037;55.638;37.356;2022-11-15T13:44:00;5.40;;;2.30;;
58238;SDS011;44037;55.638;37.356;2022-11-15T13:46:29;6.72;;;2.20;;
58238;SDS011;44037;55.638;37.356;2022-11-15T13:49:10;5.38;;;2.00;;
58238;SDS011;44037;55.638;37.356;2022-11-15T13:51:40;5.97;;;2.00;;
58238;SDS011;44037;55.638;37.356;2022-11-15T13:54:17;4.75;;;2.17;;
58238;SDS011;44037;55.638;37.356;2022-11-15T13:56:56;7.53;;;2.25;;
58238;SDS011;44037;55.638;37.356;2022-11-15T14:02:41;9.30;;;3.50;;
58238;SDS011;44037;55.638;37.356;2022-11-15T14:05:14;5.80;;;2.70;;
58238;SDS011;44037;55.638;37.356;2022-11-15T14:07:54;4.97;;;1.98;;
58238;SDS011;44037;55.638;37.356;2022-11-15T14:10:28;8.98;;;2.65;;
58238;SDS011;44037;55.638;37.356;2022-11-15T14:13:01;6.70;;;2.60;;
58238;SDS011;44037;55.638;37.356;2022-11-15T14:15:34;7.25;;;2.95;;
58238;SDS011;44037;55.638;37.356;2022-11-15T14:18:04;9.20;;;3.17;;
58238;SDS011;44037;55.638;37.356;2022-11-15T14:20:33;4.35;;;2.60;;
58238;SDS011;44037;55.638;37.356;2022-11-15T14:23:26;5.35;;;2.67;;
58238;SDS011;44037;55.638;37.356;2022-11-15T14:25:58;6.95;;;3.17;;
58238;SDS011;44037;55.638;37.356;2022-11-15T14:28:29;7.25;;;3.58;;
58238;SDS011;44037;55.638;37.356;2022-11-15T14:30:58;12.27;;;4.40;;
58238;SDS011;44037;55.638;37.356;2022-11-15T14:33:30;11.02;;;4.45;;
58238;SDS011;44037;55.638;37.356;2022-11-15T14:36:11;6.45;;;3.55;;
58238;SDS011;44037;55.638;37.356;2022-11-15T14:38:40;5.97;;;3.58;;
58238;SDS011;44037;55.638;37.356;2022-11-15T14:41:11;9.25;;;3.97;;
58238;SDS011;44037;55.638;37.356;2022-11-15T14:43:49;8.13;;;4.20;;
58238;SDS011;44037;55.638;37.356;2022-11-15T14:46:17;11.15;;;4.00;;
58238;SDS011;44037;55.638;37.356;2022-11-15T14:48:48;11.63;;;4.80;;
58238;SDS011;44037;55.638;37.356;2022-11-15T14:51:16;16.33;;;6.65;;
58238;SDS011;44037;55.638;37.356;2022-11-15T14:53:44;8.63;;;4.60;;
58238;SDS011;44037;55.638;37.356;2022-11-15T14:56:14;10.40;;;5.03;;
58238;SDS011;44037;55.638;37.356;2022-11-15T14:58:42;12.50;;;6.20;;
58238;SDS011;44037;55.638;37.356;2022-11-15T15:01:13;13.95;;;6.22;;
58238;SDS011;44037;55.638;37.356;2022-11-15T15:42:56;11.13;;;4.65;;
58238;SDS011;44037;55.638;37.356;2022-11-15T15:45:24;9.77;;;5.22;;
58238;SDS011;44037;55.638;37.356;2022-11-15T15:47:52;9.63;;;5.45;;
58238;SDS011;44037;55.638;37.356;2022-11-15T15:50:21;9.30;;;4.55;;
58238;SDS011;44037;55.638;37.356;2022-11-15T15:52:50;11.05;;;5.43;;
58238;SDS011;44037;55.638;37.356;2022-11-15T15:55:19;11.18;;;5.35;;
58238;SDS011;44037;55.638;37.356;2022-11-15T15:57:46;13.13;;;6.18;;
58238;SDS011;44037;55.638;37.356;2022-11-15T16:00:16;10.82;;;6.28;;
58238;SDS011;44037;55.638;37.356;2022-11-15T16:02:44;16.08;;;8.95;;
58238;SDS011;44037;55.638;37.356;2022-11-15T16:05:12;11.13;;;5.60;;
58238;SDS011;44037;55.638;37.356;2022-11-15T16:07:40;10.32;;;6.15;;
58238;SDS011;44037;55.638;37.356;2022-11-15T16:10:14;20.30;;;11.05;;
58238;SDS011;44037;55.638;37.356;2022-11-15T16:12:45;11.77;;;5.55;;
58238;SDS011;44037;55.638;37.356;2022-11-15T16:15:12;11.32;;;5.30;;